TimeEDT,TemperatureF,Dew PointF,Humidity,Sea Level PressureIn,VisibilityMPH,Wind Direction,Wind SpeedMPH,Gust SpeedMPH,PrecipitationIn,Events,Conditions,WindDirDegrees,DateUTC
12:56 AM,46.0,45.0,96,29.95,6.0,Calm,Calm,-,N/A,,Clear,0,2012-10-18 04:56:00
1:56 AM,46.0,45.0,96,29.93,5.0,Calm,Calm,-,N/A,,Clear,0,2012-10-18 05:56:00
2:56 AM,48.0,45.0,89,29.93,7.0,Calm,Calm,-,N/A,,Clear,0,2012-10-18 06:56:00
3:56 AM,46.9,45.0,93,29.93,6.0,Calm,Calm,-,N/A,,Mostly Cloudy,0,2012-10-18 07:56:00
4:40 AM,48.2,46.4,93,29.92,6.0,Calm,Calm,-,N/A,,Overcast,0,2012-10-18 08:40:00
4:56 AM,48.9,46.0,90,29.94,6.0,Calm,Calm,-,N/A,,Overcast,0,2012-10-18 08:56:00
5:22 AM,48.2,46.4,93,29.93,5.0,SE,4.6,-,N/A,,Scattered Clouds,140,2012-10-18 09:22:00
6:56 AM,48.0,46.9,96,29.96,2.5,SSE,4.6,-,N/A,,Scattered Clouds,150,2012-10-18 10:56:00
7:56 AM,48.9,48.0,97,29.95,2.5,East,4.6,-,N/A,,Partly Cloudy,100,2012-10-18 11:56:00
8:22 AM,51.8,50.0,94,29.95,3.0,ESE,5.8,-,N/A,,Scattered Clouds,120,2012-10-18 12:22:00
8:52 AM,53.6,51.8,94,29.96,4.0,SE,3.5,-,N/A,,Mostly Cloudy,130,2012-10-18 12:52:00
8:56 AM,53.1,51.1,93,29.96,4.0,ESE,4.6,-,N/A,,Mostly Cloudy,110,2012-10-18 12:56:00
9:21 AM,55.4,51.8,88,29.96,6.0,East,6.9,-,N/A,,Scattered Clouds,90,2012-10-18 13:21:00
10:56 AM,62.1,46.9,58,29.95,10.0,SSE,10.4,-,N/A,,Clear,160,2012-10-18 14:56:00
12:56 PM,66.0,46.9,50,29.91,10.0,SE,15.0,20.7,N/A,,Clear,130,2012-10-18 16:56:00
1:56 PM,69.1,48.9,49,29.87,10.0,SE,15.0,25.3,N/A,,Partly Cloudy,140,2012-10-18 17:56:00
2:56 PM,68.0,48.9,50,29.86,10.0,SE,16.1,-,N/A,,Scattered Clouds,140,2012-10-18 18:56:00
3:56 PM,68.0,48.9,50,29.88,10.0,SSE,12.7,19.6,N/A,,Mostly Cloudy,160,2012-10-18 19:56:00
4:56 PM,66.0,50.0,56,29.87,10.0,SSE,12.7,-,N/A,,Mostly Cloudy,160,2012-10-18 20:56:00
5:56 PM,66.0,51.1,59,29.86,10.0,SE,11.5,-,N/A,,Mostly Cloudy,140,2012-10-18 21:56:00
6:56 PM,63.0,54.0,72,29.88,10.0,ESE,13.8,24.2,N/A,,Mostly Cloudy,120,2012-10-18 22:56:00
7:56 PM,62.1,54.0,75,29.88,10.0,ESE,15.0,-,N/A,,Overcast,120,2012-10-18 23:56:00
8:42 PM,62.6,55.4,77,29.86,5.0,ESE,12.7,-,0.08,Rain-Thunderstorm,Heavy Thunderstorms and Rain,120,2012-10-19 00:42:00
8:56 PM,60.1,55.9,86,29.88,2.5,SE,11.5,-,0.16,Rain-Thunderstorm,Heavy Rain,130,2012-10-19 00:56:00
9:18 PM,59.0,55.4,88,29.88,3.0,NNW,3.5,-,0.21,Rain,Heavy Rain,340,2012-10-19 01:18:00
9:56 PM,57.9,55.9,93,29.87,4.0,East,11.5,-,0.33,Rain,Rain,80,2012-10-19 01:56:00
10:56 PM,57.9,55.9,93,29.83,10.0,East,6.9,-,0.05,,Overcast,100,2012-10-19 02:56:00
11:16 PM,57.2,55.4,94,29.83,1.8,East,5.8,-,0.15,Rain-Thunderstorm,Heavy Thunderstorms and Rain,80,2012-10-19 03:16:00
11:24 PM,57.2,57.2,100,29.84,3.0,North,3.5,-,0.17,Rain-Thunderstorm,Thunderstorms and Rain,10,2012-10-19 03:24:00
11:34 PM,57.2,55.4,94,29.87,2.5,West,9.2,-,0.21,Rain-Thunderstorm,Heavy Rain,280,2012-10-19 03:34:00
11:41 PM,57.2,55.4,94,29.87,1.8,WNW,10.4,-,0.31,Rain-Thunderstorm,Heavy Rain,300,2012-10-19 03:41:00
11:46 PM,57.2,55.4,94,29.85,1.0,North,8.1,-,0.51,Rain-Thunderstorm,Heavy Rain,10,2012-10-19 03:46:00
11:56 PM,57.9,57.0,97,29.85,1.5,North,4.6,-,0.62,Rain-Thunderstorm,Heavy Rain,360,2012-10-19 03:56:00
11:58 PM,57.2,57.2,100,29.84,2.0,NNE,5.8,-,0.02,Rain-Thunderstorm,Heavy Rain,20,2012-10-19 03:58:00